Brookdale, California
Current Conditions -  °F | °C
As of 2:53 AM on Thursday 18 Dec 2014 (Local Time) from KSJC Reporting Station
Overcast Overcast  
Wind Chill: 51°   Ceiling: 4800
Heat Index: 51°   Visibility: 10mi
Dew Point: 46°   Wind: 10mph
Humidity: 83%   Direction: 120°ESE
Pressure: 30.08"   Gusts: NA
Location:  37.11°N, 122.1°W
Report Text: KSJC 181053Z AUTO 12009KT 10SM SCT035 BKN048 OVC055 11/08 A3008 RMK AO2 SLP185 T01060078
Loading
Personal Weather Stations






























Interactive Weather Map New forecast layout! Learn more

10-Day Weather Forecast

Advertisements
Track Severe Weather on mobile